createdAt,value
2022-08-25T00:00:50.296Z,94970.06
2022-08-25T00:03:17.584Z,94970.19
2022-08-25T00:05:45.488Z,94966.59
2022-08-25T00:08:12.193Z,94964.31
2022-08-25T00:10:39.363Z,94966.97
2022-08-25T00:13:07.617Z,94962.66
2022-08-25T00:15:34.763Z,94968.41
2022-08-25T00:18:02.060Z,94966.09
2022-08-25T00:20:29.924Z,94967.63
2022-08-25T00:22:56.635Z,94972.06
2022-08-25T00:25:23.590Z,94970.69
2022-08-25T00:27:52.448Z,94974.63
2022-08-25T00:30:20.578Z,94973.72
2022-08-25T00:32:56.806Z,94965.22
2022-08-25T00:35:25.969Z,94967.00
2022-08-25T00:37:52.722Z,94956.53
2022-08-25T00:40:20.243Z,94955.31
2022-08-25T00:42:47.083Z,94958.41
2022-08-25T00:45:13.737Z,94957.72
2022-08-25T00:47:41.887Z,94956.09
2022-08-25T00:50:11.176Z,94958.50
2022-08-25T00:52:41.659Z,94947.22
2022-08-25T00:55:14.614Z,94950.06
2022-08-25T00:57:45.701Z,94941.09
2022-08-25T01:00:17.547Z,94939.81
2022-08-25T01:02:46.079Z,94944.81
2022-08-25T01:05:13.169Z,94936.81
2022-08-25T01:07:44.638Z,94948.59
2022-08-25T01:10:13.420Z,94946.53
2022-08-25T01:12:41.209Z,94940.69
2022-08-25T01:15:10.418Z,94945.00
2022-08-25T01:17:47.571Z,94952.56
2022-08-25T01:20:15.278Z,94953.13
2022-08-25T01:22:43.317Z,94955.31
2022-08-25T01:25:25.779Z,94952.81
2022-08-25T01:27:52.740Z,94950.44
2022-08-25T01:30:19.800Z,94942.56
2022-08-25T01:32:46.471Z,94936.06
2022-08-25T01:35:14.170Z,94936.53
2022-08-25T01:37:40.834Z,94935.31
2022-08-25T01:40:10.352Z,94935.63
2022-08-25T01:42:46.875Z,94929.28
2022-08-25T01:45:13.958Z,94931.50
2022-08-25T01:47:41.081Z,94931.91
2022-08-25T01:50:08.264Z,94933.88
2022-08-25T01:52:49.827Z,94937.03
2022-08-25T01:55:18.418Z,94933.28
2022-08-25T01:57:45.234Z,94932.69
2022-08-25T02:00:14.631Z,94936.03
2022-08-25T02:02:42.769Z,94941.50
2022-08-25T02:05:13.996Z,94940.00
2022-08-25T02:07:42.470Z,94947.50
2022-08-25T02:10:10.631Z,94945.63
2022-08-25T02:12:38.997Z,94934.09
2022-08-25T02:15:07.495Z,94942.59
2022-08-25T02:17:36.660Z,94931.84
2022-08-25T02:20:04.513Z,94933.34
2022-08-25T02:22:31.182Z,94926.38
2022-08-25T02:24:57.810Z,94934.06
2022-08-25T02:27:24.571Z,94922.41
2022-08-25T02:29:52.700Z,94936.53
2022-08-25T02:32:19.428Z,94928.81
2022-08-25T02:34:46.134Z,94927.81
2022-08-25T02:37:12.868Z,94924.91
2022-08-25T02:39:39.826Z,94923.34
2022-08-25T02:42:06.854Z,94924.22
2022-08-25T02:44:35.458Z,94908.94
2022-08-25T02:47:04.011Z,94915.22
2022-08-25T02:49:32.237Z,94913.72
2022-08-25T02:52:00.820Z,94920.63
2022-08-25T02:54:28.643Z,94919.81
2022-08-25T02:56:55.503Z,94916.88
2022-08-25T02:59:22.204Z,94915.00
2022-08-25T03:01:49.086Z,94917.41
2022-08-25T03:04:17.873Z,94921.38
2022-08-25T03:06:45.362Z,94916.88
2022-08-25T03:09:12.771Z,94913.56
2022-08-25T03:11:39.767Z,94913.88
2022-08-25T03:14:09.718Z,94907.25
2022-08-25T03:16:36.637Z,94911.59
2022-08-25T03:19:04.387Z,94909.41
2022-08-25T03:21:34.231Z,94907.56
2022-08-25T03:24:01.063Z,94906.75
2022-08-25T03:26:46.455Z,94910.50
2022-08-25T03:29:13.859Z,94905.44
2022-08-25T03:31:41.047Z,94906.53
2022-08-25T03:34:10.377Z,94908.22
2022-08-25T03:36:38.450Z,94912.25
2022-08-25T03:39:06.177Z,94915.19
2022-08-25T03:41:32.883Z,94911.22
2022-08-25T03:44:01.018Z,94910.94
2022-08-25T03:46:29.838Z,94912.00
2022-08-25T03:48:57.617Z,94918.94
2022-08-25T03:51:26.298Z,94906.09
2022-08-25T03:53:55.449Z,94910.31
2022-08-25T03:56:22.103Z,94909.00
2022-08-25T03:58:48.869Z,94915.19
2022-08-25T04:01:16.686Z,94913.88
2022-08-25T04:03:44.958Z,94911.56
2022-08-25T04:06:11.996Z,94919.13
2022-08-25T04:08:38.881Z,94923.16
2022-08-25T04:11:10.229Z,94917.25
2022-08-25T04:13:37.454Z,94917.53
2022-08-25T04:16:04.570Z,94920.19
2022-08-25T04:18:31.217Z,94920.50
2022-08-25T04:21:05.567Z,94926.88
2022-08-25T04:23:32.253Z,94921.91
2022-08-25T04:25:58.942Z,94920.88
2022-08-25T04:28:27.348Z,94925.47
2022-08-25T04:30:54.257Z,94920.50
2022-08-25T04:33:21.140Z,94926.38
2022-08-25T04:35:49.127Z,94926.69
2022-08-25T04:38:15.872Z,94922.75
2022-08-25T04:40:42.543Z,94924.16
2022-08-25T04:43:09.284Z,94917.59
2022-08-25T04:45:38.432Z,94926.94
2022-08-25T04:48:05.265Z,94928.34
2022-08-25T04:50:32.042Z,94928.63
2022-08-25T04:53:00.274Z,94924.31
2022-08-25T04:55:27.097Z,94910.69
2022-08-25T04:57:53.740Z,94911.44
2022-08-25T05:00:20.469Z,94909.50
2022-08-25T05:02:48.635Z,94911.84
2022-08-25T05:05:16.198Z,94917.13
2022-08-25T05:07:42.845Z,94918.13
2022-08-25T05:10:09.705Z,94917.28
2022-08-25T05:12:36.370Z,94921.75
2022-08-25T05:15:24.029Z,94918.22
2022-08-25T05:18:05.498Z,94912.81
2022-08-25T05:20:32.207Z,94915.72
2022-08-25T05:22:59.237Z,94919.91
2022-08-25T05:25:25.928Z,94916.97
2022-08-25T05:27:52.622Z,94923.88
2022-08-25T05:30:19.386Z,94916.41
2022-08-25T05:32:46.065Z,94919.63
2022-08-25T05:35:15.575Z,94908.69
2022-08-25T05:37:42.549Z,94914.22
2022-08-25T05:40:10.375Z,94909.34
2022-08-25T05:42:37.355Z,94904.97
2022-08-25T05:45:04.168Z,94907.56
2022-08-25T05:47:31.034Z,94904.31
2022-08-25T05:49:58.126Z,94900.56
2022-08-25T05:52:28.266Z,94890.94
2022-08-25T05:54:54.987Z,94898.09
2022-08-25T05:57:21.676Z,94895.63
2022-08-25T05:59:48.545Z,94895.31
2022-08-25T06:02:33.654Z,94898.22
2022-08-25T06:05:00.329Z,94892.81
2022-08-25T06:07:28.633Z,94888.41
2022-08-25T06:09:55.317Z,94897.63
2022-08-25T06:12:22.243Z,94886.22
2022-08-25T06:14:51.625Z,94889.41
2022-08-25T06:17:18.294Z,94891.63
2022-08-25T06:19:44.917Z,94892.25
2022-08-25T06:22:12.529Z,94893.72
2022-08-25T06:24:40.888Z,94905.53
2022-08-25T06:27:07.586Z,94893.81
2022-08-25T06:29:34.519Z,94893.00
2022-08-25T06:32:01.205Z,94894.09
2022-08-25T06:34:27.953Z,94892.19
2022-08-25T06:36:54.646Z,94892.78
2022-08-25T06:39:22.797Z,94898.41
2022-08-25T06:41:52.829Z,94898.91
2022-08-25T06:44:19.546Z,94897.44
2022-08-25T06:46:46.408Z,94891.56
2022-08-25T06:49:13.301Z,94886.97
2022-08-25T06:51:41.789Z,94874.63
2022-08-25T06:54:10.249Z,94879.88
2022-08-25T06:56:37.808Z,94888.16
2022-08-25T06:59:07.658Z,94881.75
2022-08-25T07:01:34.988Z,94884.16
2022-08-25T07:04:05.726Z,94893.34
2022-08-25T07:06:37.786Z,94895.47
2022-08-25T07:09:05.900Z,94889.50
2022-08-25T07:11:34.367Z,94889.38
2022-08-25T07:14:01.968Z,94889.75
2022-08-25T07:16:31.504Z,94888.84
2022-08-25T07:19:00.121Z,94889.84
2022-08-25T07:21:33.164Z,94882.44
2022-08-25T07:24:00.967Z,94882.59
2022-08-25T07:26:38.972Z,94880.22
2022-08-25T07:29:09.622Z,94882.59
2022-08-25T07:31:38.253Z,94879.28
2022-08-25T07:34:24.289Z,94883.84
2022-08-25T07:36:52.524Z,94874.19
2022-08-25T07:39:21.877Z,94876.34
2022-08-25T07:41:52.408Z,94873.31
2022-08-25T07:44:20.871Z,94877.03
2022-08-25T07:46:50.178Z,94876.22
2022-08-25T07:49:17.320Z,94875.34
2022-08-25T07:52:05.482Z,94874.00
2022-08-25T07:54:34.137Z,94877.22
2022-08-25T07:57:01.556Z,94870.31
2022-08-25T07:59:28.385Z,94866.59
2022-08-25T08:01:56.411Z,94864.66
2022-08-25T08:04:23.077Z,94864.13
2022-08-25T08:06:49.980Z,94862.03
2022-08-25T08:09:16.745Z,94860.16
2022-08-25T08:11:53.696Z,94858.50
2022-08-25T08:14:21.165Z,94855.16
2022-08-25T08:16:47.981Z,94854.50
2022-08-25T08:19:16.425Z,94855.47
2022-08-25T08:21:43.856Z,94853.59
2022-08-25T08:24:25.053Z,94852.72
2022-08-25T08:26:58.949Z,94853.63
2022-08-25T08:29:26.354Z,94844.72
2022-08-25T08:31:53.538Z,94849.91
2022-08-25T08:34:24.736Z,94841.72
2022-08-25T08:36:51.695Z,94848.19
2022-08-25T08:39:18.497Z,94852.34
2022-08-25T08:42:16.841Z,94855.66
2022-08-25T08:45:02.631Z,94852.16
2022-08-25T08:47:43.405Z,94853.25
2022-08-25T08:50:30.780Z,94846.50
2022-08-25T08:53:11.337Z,94851.50
2022-08-25T08:55:42.717Z,94849.19
2022-08-25T08:58:14.894Z,94853.47
2022-08-25T09:00:52.371Z,94850.00
2022-08-25T09:03:29.491Z,94846.31
2022-08-25T09:06:02.653Z,94842.91
2022-08-25T09:08:30.972Z,94829.06
2022-08-25T09:11:03.228Z,94830.97
2022-08-25T09:13:45.511Z,94834.06
2022-08-25T09:16:37.623Z,94833.03
2022-08-25T09:19:21.085Z,94830.38
2022-08-25T09:21:57.816Z,94824.66
2022-08-25T09:24:47.113Z,94822.06
2022-08-25T09:27:22.826Z,94824.31
2022-08-25T09:30:00.217Z,94825.31
2022-08-25T09:32:31.173Z,94824.63
2022-08-25T09:34:59.465Z,94830.16
2022-08-25T09:37:28.316Z,94822.13
2022-08-25T09:39:55.145Z,94817.69
2022-08-25T09:42:49.819Z,94819.06
2022-08-25T09:45:32.349Z,94802.50
2022-08-25T09:47:58.962Z,94799.19
2022-08-25T09:50:32.275Z,94803.75
2022-08-25T09:53:17.002Z,94805.94
2022-08-25T09:55:48.441Z,94796.28
2022-08-25T09:58:19.739Z,94795.44
2022-08-25T10:01:03.181Z,94797.56
2022-08-25T10:03:36.670Z,94792.34
2022-08-25T10:06:07.699Z,94786.19
2022-08-25T10:08:56.826Z,94790.22
2022-08-25T10:11:33.725Z,94789.56
2022-08-25T10:14:03.026Z,94787.31
2022-08-25T10:16:36.147Z,94784.06
2022-08-25T10:19:08.307Z,94779.47
2022-08-25T10:21:37.436Z,94771.47
2022-08-25T10:24:07.621Z,94777.47
2022-08-25T10:26:47.733Z,94775.22
2022-08-25T10:29:32.538Z,94775.28
2022-08-25T10:32:12.164Z,94767.59
2022-08-25T10:34:46.302Z,94764.53
2022-08-25T10:37:28.584Z,94763.41
2022-08-25T10:40:11.171Z,94757.63
2022-08-25T10:42:49.588Z,94772.06
2022-08-25T10:45:40.199Z,94764.59
2022-08-25T10:48:23.814Z,94758.59
2022-08-25T10:50:56.757Z,94755.97
2022-08-25T10:56:11.701Z,94754.84
2022-08-25T10:59:09.253Z,94745.00
2022-08-25T11:01:58.811Z,94746.91
2022-08-25T11:04:32.098Z,94743.81
2022-08-25T11:07:08.673Z,94743.88
2022-08-25T11:09:41.035Z,94742.84
2022-08-25T11:12:15.616Z,94740.13
2022-08-25T11:14:49.796Z,94740.91
2022-08-25T11:17:20.452Z,94743.25
2022-08-25T11:19:50.320Z,94744.38
2022-08-25T11:22:23.066Z,94735.50
2022-08-25T11:25:18.703Z,94737.56
2022-08-25T11:28:02.165Z,94732.56
2022-08-25T11:30:29.045Z,94733.41
2022-08-25T11:32:56.611Z,94740.84
2022-08-25T11:35:28.383Z,94734.22
2022-08-25T11:41:11.211Z,94730.78
2022-08-25T11:44:08.127Z,94723.81
2022-08-25T11:46:47.160Z,94723.84
2022-08-25T11:49:39.430Z,94726.25
2022-08-25T11:52:30.616Z,94727.84
2022-08-25T11:55:11.570Z,94725.16
2022-08-25T11:57:39.087Z,94729.09
2022-08-25T12:00:40.995Z,94727.94
2022-08-25T12:04:01.883Z,94733.78
2022-08-25T12:06:34.012Z,94731.44
2022-08-25T12:09:21.640Z,94729.09
2022-08-25T12:11:55.433Z,94721.72
2022-08-25T12:20:19.395Z,94713.91
2022-08-25T12:29:16.838Z,94710.78
2022-08-25T12:32:04.906Z,94717.41
2022-08-25T12:37:56.287Z,94713.91
2022-08-25T12:46:39.446Z,94702.16
2022-08-25T12:49:28.770Z,94693.19
2022-08-25T13:03:57.269Z,94699.44
2022-08-25T13:09:49.282Z,94703.34
2022-08-25T13:18:23.101Z,94686.91
2022-08-25T13:23:42.602Z,94684.59
2022-08-25T13:26:14.298Z,94687.38
2022-08-25T13:28:50.232Z,94684.25
2022-08-25T13:31:22.192Z,94688.16
2022-08-25T13:55:31.036Z,94673.34
2022-08-25T14:14:05.271Z,94666.75
2022-08-25T14:17:16.385Z,94661.28
2022-08-25T14:20:29.740Z,94662.88
2022-08-25T14:25:42.425Z,94669.84
2022-08-25T14:28:14.665Z,94668.66
2022-08-25T14:30:46.239Z,94662.41
2022-08-25T14:33:16.697Z,94665.16
2022-08-25T14:35:47.496Z,94663.97
2022-08-25T14:38:15.196Z,94659.69
2022-08-25T14:40:44.667Z,94660.88
2022-08-25T14:43:12.187Z,94660.47
2022-08-25T14:45:50.200Z,94660.09
2022-08-25T14:48:26.697Z,94657.34
2022-08-25T14:50:56.134Z,94655.78
2022-08-25T14:53:24.031Z,94654.63
2022-08-25T14:55:54.212Z,94647.59
2022-08-25T14:58:34.058Z,94650.69
2022-08-25T15:01:01.978Z,94648.38
2022-08-25T15:03:47.595Z,94646.06
2022-08-25T15:06:24.673Z,94645.66
2022-08-25T15:09:11.731Z,94639.81
2022-08-25T15:11:42.037Z,94639.06
2022-08-25T15:14:11.089Z,94636.31
2022-08-25T15:16:42.476Z,94635.56
2022-08-25T15:19:16.933Z,94631.28
2022-08-25T15:21:46.412Z,94630.50
2022-08-25T15:24:17.733Z,94630.88
2022-08-25T15:26:56.728Z,94629.31
2022-08-25T15:29:26.341Z,94629.28
2022-08-25T15:31:53.533Z,94627.34
2022-08-25T15:34:21.912Z,94634.75
2022-08-25T15:36:51.252Z,94632.44
2022-08-25T15:39:19.679Z,94625.78
2022-08-25T15:41:49.239Z,94625.03
2022-08-25T15:44:16.835Z,94620.31
2022-08-25T15:46:51.844Z,94615.69
2022-08-25T15:49:23.545Z,94618.41
2022-08-25T15:51:52.690Z,94616.84
2022-08-25T15:54:21.804Z,94617.59
2022-08-25T15:56:48.657Z,94621.84
2022-08-25T15:59:16.505Z,94623.75
2022-08-25T16:01:46.578Z,94623.78
2022-08-25T16:04:18.332Z,94620.66
2022-08-25T16:06:54.279Z,94617.53
2022-08-25T16:09:23.636Z,94612.84
2022-08-25T16:11:56.752Z,94616.75
2022-08-25T16:19:48.336Z,94612.44
2022-08-25T16:22:16.507Z,94614.78
2022-08-25T16:24:44.997Z,94614.78
2022-08-25T16:27:13.055Z,94610.50
2022-08-25T16:29:41.166Z,94616.72
2022-08-25T16:32:08.740Z,94608.91
2022-08-25T16:34:36.176Z,94616.28
2022-08-25T16:37:03.300Z,94608.88
2022-08-25T16:39:32.652Z,94601.50
2022-08-25T16:41:59.422Z,94604.63
2022-08-25T16:44:26.283Z,94606.16
2022-08-25T16:46:56.561Z,94609.63
2022-08-25T16:49:24.484Z,94609.59
2022-08-25T16:51:56.698Z,94603.34
2022-08-25T16:54:44.445Z,94604.09
2022-08-25T16:57:13.625Z,94606.41
2022-08-25T16:59:42.426Z,94595.53
2022-08-25T17:02:11.060Z,94602.13
2022-08-25T17:04:37.901Z,94599.03
2022-08-25T17:07:06.610Z,94600.94
2022-08-25T17:09:34.695Z,94591.59
2022-08-25T17:12:01.706Z,94592.72
2022-08-25T17:14:29.784Z,94590.00
2022-08-25T17:17:01.462Z,94592.28
2022-08-25T17:19:28.292Z,94596.53
2022-08-25T17:21:55.197Z,94594.56
2022-08-25T17:24:29.566Z,94592.53
2022-08-25T17:26:59.094Z,94596.34
2022-08-25T17:29:26.654Z,94595.47
2022-08-25T17:31:54.823Z,94593.84
2022-08-25T17:34:23.193Z,94599.19
2022-08-25T17:36:50.890Z,94606.50
2022-08-25T17:39:22.306Z,94601.28
2022-08-25T17:41:49.953Z,94606.22
2022-08-25T17:44:17.246Z,94599.91
2022-08-25T17:46:47.339Z,94599.81
2022-08-25T17:49:17.055Z,94603.19
2022-08-25T17:51:43.938Z,94603.41
2022-08-25T17:54:11.960Z,94608.38
2022-08-25T17:56:39.328Z,94607.91
2022-08-25T17:59:06.936Z,94609.41
2022-08-25T18:01:40.532Z,94607.72
2022-08-25T18:04:17.408Z,94612.66
2022-08-25T18:06:48.624Z,94614.84
2022-08-25T18:09:15.468Z,94614.38
2022-08-25T18:11:42.612Z,94621.94
2022-08-25T18:14:11.292Z,94616.78
2022-08-25T18:16:38.845Z,94619.78
2022-08-25T18:19:06.468Z,94608.78
2022-08-25T18:21:37.319Z,94618.66
2022-08-25T18:24:06.352Z,94619.22
2022-08-25T18:26:33.620Z,94625.19
2022-08-25T18:29:01.549Z,94624.28
2022-08-25T18:31:28.531Z,94626.47
2022-08-25T18:33:55.380Z,94622.09
2022-08-25T18:36:22.440Z,94621.94
2022-08-25T18:39:08.120Z,94619.91
2022-08-25T18:41:38.478Z,94621.69
2022-08-25T18:44:07.435Z,94628.97
2022-08-25T18:46:35.017Z,94642.44
2022-08-25T18:49:02.907Z,94645.31
2022-08-25T18:51:33.151Z,94639.28
2022-08-25T18:54:01.129Z,94637.34
2022-08-25T18:56:28.354Z,94633.31
2022-08-25T18:58:57.192Z,94635.91
2022-08-25T19:01:24.432Z,94637.50
2022-08-25T19:03:51.431Z,94645.16
2022-08-25T19:06:19.442Z,94641.97
2022-08-25T19:08:47.802Z,94629.78
2022-08-25T19:11:15.965Z,94639.72
2022-08-25T19:13:43.258Z,94639.28
2022-08-25T19:16:13.844Z,94640.41
2022-08-25T19:18:45.433Z,94636.06
2022-08-25T19:21:12.471Z,94630.94
2022-08-25T19:23:39.233Z,94635.03
2022-08-25T19:26:08.286Z,94634.53
2022-08-25T19:28:45.587Z,94632.44
2022-08-25T19:31:18.238Z,94635.44
2022-08-25T19:33:46.029Z,94639.09
2022-08-25T19:36:13.870Z,94642.84
2022-08-25T19:38:40.640Z,94635.78
2022-08-25T19:41:12.974Z,94643.69
2022-08-25T19:43:56.622Z,94644.28
2022-08-25T19:46:32.705Z,94641.78
2022-08-25T19:49:06.952Z,94647.78
2022-08-25T19:51:34.596Z,94647.25
2022-08-25T19:54:02.827Z,94648.81
2022-08-25T19:56:29.990Z,94647.00
2022-08-25T19:58:57.429Z,94642.81
2022-08-25T20:01:26.094Z,94646.28
2022-08-25T20:03:52.792Z,94645.16
2022-08-25T20:06:19.857Z,94648.66
2022-08-25T20:08:46.628Z,94645.06
2022-08-25T20:11:26.271Z,94647.25
2022-08-25T20:13:53.322Z,94645.56
2022-08-25T20:16:20.674Z,94648.44
2022-08-25T20:18:48.826Z,94649.41
2022-08-25T20:21:15.480Z,94653.91
2022-08-25T20:24:00.590Z,94651.97
2022-08-25T20:26:29.181Z,94659.28
2022-08-25T20:28:56.043Z,94656.84
2022-08-25T20:31:22.849Z,94655.53
2022-08-25T20:33:51.618Z,94663.09
2022-08-25T20:36:19.373Z,94654.69
2022-08-25T20:38:46.323Z,94660.13
2022-08-25T20:41:13.540Z,94656.09
2022-08-25T20:43:41.340Z,94659.03
2022-08-25T20:46:09.138Z,94664.91
2022-08-25T20:48:36.127Z,94657.59
2022-08-25T20:51:06.575Z,94654.50
2022-08-25T20:53:35.239Z,94662.16
2022-08-25T20:56:02.359Z,94654.50
2022-08-25T20:58:29.268Z,94657.75
2022-08-25T21:00:56.508Z,94656.53
2022-08-25T21:03:23.359Z,94654.50
2022-08-25T21:05:53.548Z,94660.13
2022-08-25T21:08:23.828Z,94651.13
2022-08-25T21:10:52.158Z,94657.31
2022-08-25T21:13:18.778Z,94657.44
2022-08-25T21:15:48.553Z,94659.13
2022-08-25T21:18:15.369Z,94657.53
2022-08-25T21:20:42.984Z,94658.97
2022-08-25T21:23:09.646Z,94657.31
2022-08-25T21:25:41.435Z,94666.84
2022-08-25T21:28:08.499Z,94665.25
2022-08-25T21:30:35.241Z,94663.13
2022-08-25T21:33:02.390Z,94661.69
2022-08-25T21:35:29.104Z,94655.97
2022-08-25T21:37:56.076Z,94654.06
2022-08-25T21:40:23.058Z,94658.66
2022-08-25T21:42:52.002Z,94657.88
2022-08-25T21:45:21.654Z,94653.94
2022-08-25T21:47:48.758Z,94655.88
2022-08-25T21:50:15.504Z,94658.97
2022-08-25T21:52:42.428Z,94657.88
2022-08-25T21:55:15.833Z,94664.72
2022-08-25T21:57:43.129Z,94661.91
2022-08-25T22:00:14.841Z,94665.72
2022-08-25T22:02:43.938Z,94663.03
2022-08-25T22:05:11.477Z,94663.13
2022-08-25T22:07:42.091Z,94668.53
2022-08-25T22:10:16.725Z,94665.81
2022-08-25T22:12:44.655Z,94668.41
2022-08-25T22:15:15.544Z,94670.34
2022-08-25T22:17:42.393Z,94671.00
2022-08-25T22:20:10.626Z,94668.19
2022-08-25T22:22:37.388Z,94667.41
2022-08-25T22:25:05.458Z,94667.41
2022-08-25T22:27:32.892Z,94659.53
2022-08-25T22:30:00.738Z,94667.06
2022-08-25T22:32:28.721Z,94662.03
2022-08-25T22:34:55.349Z,94662.03
2022-08-25T22:37:22.284Z,94660.44
2022-08-25T22:39:49.391Z,94662.25
2022-08-25T22:42:16.294Z,94660.88
2022-08-25T22:44:42.962Z,94663.44
2022-08-25T22:47:11.894Z,94664.41
2022-08-25T22:49:40.493Z,94660.16
2022-08-25T22:52:09.275Z,94661.25
2022-08-25T22:54:38.391Z,94663.19
2022-08-25T22:57:06.794Z,94660.03
2022-08-25T22:59:34.162Z,94657.22
2022-08-25T23:02:01.043Z,94662.34
2022-08-25T23:04:27.768Z,94660.53
2022-08-25T23:06:56.149Z,94654.69
2022-08-25T23:09:24.935Z,94661.22
2022-08-25T23:11:51.667Z,94659.66
2022-08-25T23:14:18.711Z,94657.84
2022-08-25T23:16:45.590Z,94655.66
2022-08-25T23:19:14.275Z,94654.16
2022-08-25T23:22:00.112Z,94650.31
2022-08-25T23:24:30.727Z,94650.06
2022-08-25T23:26:59.176Z,94656.41
2022-08-25T23:29:27.764Z,94645.72
2022-08-25T23:31:55.577Z,94646.56
2022-08-25T23:34:23.138Z,94646.31
2022-08-25T23:36:50.456Z,94643.63
2022-08-25T23:39:17.182Z,94646.31
2022-08-25T23:41:45.241Z,94644.53
2022-08-25T23:44:17.221Z,94645.78
2022-08-25T23:46:44.678Z,94643.88
2022-08-25T23:49:11.604Z,94643.09
2022-08-25T23:51:38.631Z,94643.88
2022-08-25T23:54:07.091Z,94644.66
2022-08-25T23:56:37.150Z,94648.00
2022-08-25T23:59:10.744Z,94642.72
